createdAt,value
2019-02-02T00:02:24.790Z,17.57
2019-02-02T00:04:51.593Z,19.25
2019-02-02T00:07:18.295Z,19.60
2019-02-02T00:09:45.099Z,18.32
2019-02-02T00:12:12.077Z,19.45
2019-02-02T00:14:38.794Z,17.57
2019-02-02T00:17:05.598Z,18.23
2019-02-02T00:19:32.299Z,16.50
2019-02-02T00:21:59.415Z,17.40
2019-02-02T00:24:26.115Z,16.93
2019-02-02T00:26:52.820Z,18.35
2019-02-02T00:29:19.531Z,16.52
2019-02-02T00:31:46.230Z,19.15
2019-02-02T00:34:12.938Z,17.82
2019-02-02T00:36:39.740Z,18.77
2019-02-02T00:39:08.499Z,19.15
2019-02-02T00:41:35.219Z,19.32
2019-02-02T00:44:02.053Z,17.17
2019-02-02T00:46:29.083Z,17.98
2019-02-02T00:48:55.901Z,18.25
2019-02-02T00:51:22.996Z,18.73
2019-02-02T00:53:49.703Z,19.10
2019-02-02T00:56:16.399Z,16.32
2019-02-02T00:58:43.103Z,16.87
2019-02-02T01:01:09.999Z,17.37
2019-02-02T01:03:36.711Z,18.92
2019-02-02T01:06:04.947Z,17.27
2019-02-02T01:08:31.962Z,19.55
2019-02-02T01:10:58.863Z,18.27
2019-02-02T01:13:25.671Z,19.10
2019-02-02T01:15:52.383Z,17.75
2019-02-02T01:18:19.195Z,20.95
2019-02-02T01:20:46.094Z,20.08
2019-02-02T01:23:12.915Z,19.27
2019-02-02T01:25:39.724Z,19.77
2019-02-02T01:28:06.537Z,20.68
2019-02-02T01:30:33.335Z,20.80
2019-02-02T01:33:00.036Z,19.95
2019-02-02T01:35:26.877Z,21.48
2019-02-02T01:37:54.027Z,20.35
2019-02-02T01:40:20.856Z,20.82
2019-02-02T01:42:47.774Z,20.72
2019-02-02T01:45:20.316Z,21.10
2019-02-02T01:47:47.224Z,19.98
2019-02-02T01:50:15.564Z,19.95
2019-02-02T01:52:42.483Z,18.70
2019-02-02T01:55:10.743Z,20.43
2019-02-02T01:57:37.750Z,19.48
2019-02-02T02:00:06.614Z,20.65
2019-02-02T02:02:33.331Z,21.00
2019-02-02T02:05:00.031Z,20.10
2019-02-02T02:07:26.843Z,19.85
2019-02-02T02:09:53.583Z,20.88
2019-02-02T02:12:20.479Z,19.37
2019-02-02T02:14:47.511Z,21.85
2019-02-02T02:17:14.199Z,20.80
2019-02-02T02:19:40.900Z,20.02
2019-02-02T02:22:07.695Z,22.55
2019-02-02T02:24:34.391Z,22.20
2019-02-02T02:27:01.098Z,22.17
2019-02-02T02:29:27.811Z,23.15
2019-02-02T02:31:54.527Z,18.32
2019-02-02T02:34:21.335Z,21.37
2019-02-02T02:36:48.219Z,23.32
2019-02-02T02:39:14.945Z,22.52
2019-02-02T02:41:41.642Z,20.92
2019-02-02T02:44:08.343Z,22.10
2019-02-02T02:46:35.143Z,22.25
2019-02-02T02:49:01.846Z,22.73
2019-02-02T02:51:28.561Z,22.27
2019-02-02T02:53:55.263Z,22.07
2019-02-02T02:56:22.056Z,21.90
2019-02-02T02:58:48.752Z,22.10
2019-02-02T03:01:15.455Z,21.85
2019-02-02T03:03:42.158Z,22.90
2019-02-02T03:06:08.959Z,19.85
2019-02-02T03:08:35.671Z,20.82
2019-02-02T03:11:02.571Z,22.22
2019-02-02T03:13:29.378Z,19.95
2019-02-02T03:15:56.063Z,21.75
2019-02-02T03:18:23.171Z,22.10
2019-02-02T03:20:49.879Z,19.70
2019-02-02T03:23:16.577Z,23.90
2019-02-02T03:25:43.275Z,23.50
2019-02-02T03:28:10.224Z,20.68
2019-02-02T03:30:36.948Z,22.45
2019-02-02T03:33:03.659Z,24.65
2019-02-02T03:35:30.367Z,24.40
2019-02-02T03:37:57.160Z,23.02
2019-02-02T03:40:23.959Z,24.70
2019-02-02T03:42:51.663Z,22.42
2019-02-02T03:45:20.325Z,26.95
2019-02-02T03:47:47.059Z,24.90
2019-02-02T03:50:14.060Z,25.82
2019-02-02T03:52:40.972Z,27.30
2019-02-02T03:55:08.915Z,26.52
2019-02-02T03:57:35.714Z,25.45
2019-02-02T04:00:04.555Z,23.42
2019-02-02T04:02:31.363Z,23.38
2019-02-02T04:04:58.068Z,27.02
2019-02-02T04:07:24.767Z,27.30
2019-02-02T04:09:51.471Z,28.02
2019-02-02T04:12:18.164Z,26.30
2019-02-02T04:14:44.863Z,26.25
2019-02-02T04:17:11.559Z,26.80
2019-02-02T04:19:38.263Z,23.98
2019-02-02T04:22:05.067Z,25.60
2019-02-02T04:24:31.763Z,26.77
2019-02-02T04:26:58.471Z,26.20
2019-02-02T04:29:25.190Z,27.80
2019-02-02T04:31:51.911Z,28.10
2019-02-02T04:34:18.614Z,26.15
2019-02-02T04:36:45.408Z,28.52
2019-02-02T04:39:12.095Z,27.48
2019-02-02T04:41:38.804Z,26.00
2019-02-02T04:44:05.803Z,24.87
2019-02-02T04:46:32.495Z,26.85
2019-02-02T04:48:59.203Z,27.90
2019-02-02T04:51:25.908Z,25.48
2019-02-02T04:53:52.622Z,25.48
2019-02-02T04:56:19.523Z,24.60
2019-02-02T04:58:46.232Z,24.98
2019-02-02T05:01:12.927Z,25.25
2019-02-02T05:03:39.618Z,25.10
2019-02-02T05:06:06.925Z,28.35
2019-02-02T05:08:33.650Z,26.82
2019-02-02T05:11:00.356Z,26.30
2019-02-02T05:13:27.075Z,30.32
2019-02-02T05:15:53.923Z,30.02
2019-02-02T05:18:20.727Z,27.30
2019-02-02T05:20:47.442Z,30.57
2019-02-02T05:23:14.142Z,28.17
2019-02-02T05:25:40.839Z,27.55
2019-02-02T05:28:07.744Z,26.65
2019-02-02T05:30:34.451Z,29.32
2019-02-02T05:33:01.152Z,31.48
2019-02-02T05:35:27.960Z,30.15
2019-02-02T05:37:55.054Z,31.02
2019-02-02T05:40:21.993Z,31.68
2019-02-02T05:42:49.191Z,32.63
2019-02-02T05:45:17.266Z,35.15
2019-02-02T05:47:44.263Z,35.55
2019-02-02T05:50:13.291Z,35.50
2019-02-02T05:52:40.631Z,35.23
2019-02-02T05:55:09.053Z,33.20
2019-02-02T05:57:35.852Z,37.55
2019-02-02T06:00:06.022Z,31.02
2019-02-02T06:02:32.715Z,32.83
2019-02-02T06:04:59.515Z,35.10
2019-02-02T06:07:26.211Z,33.38
2019-02-02T06:09:52.903Z,37.08
2019-02-02T06:12:19.711Z,34.43
2019-02-02T06:14:46.531Z,31.85
2019-02-02T06:17:13.223Z,32.70
2019-02-02T06:19:39.922Z,36.05
2019-02-02T06:22:06.622Z,41.53
2019-02-02T06:24:33.319Z,35.65
2019-02-02T06:27:00.015Z,31.45
2019-02-02T06:29:26.709Z,34.38
2019-02-02T06:31:53.567Z,33.42
2019-02-02T06:34:20.242Z,39.98
2019-02-02T06:36:46.955Z,36.38
2019-02-02T06:39:13.909Z,35.23
2019-02-02T06:41:40.598Z,40.28
2019-02-02T06:44:07.591Z,36.28
2019-02-02T06:46:43.366Z,35.55
2019-02-02T06:49:03.852Z,34.83
2019-02-02T06:51:30.543Z,35.75
2019-02-02T06:53:57.247Z,37.63
2019-02-02T06:56:23.947Z,36.05
2019-02-02T06:58:50.654Z,34.78
2019-02-02T07:01:17.587Z,38.50
2019-02-02T07:03:44.288Z,39.50
2019-02-02T07:06:10.980Z,38.30
2019-02-02T07:08:37.782Z,42.83
2019-02-02T07:11:04.679Z,36.63
2019-02-02T07:13:31.382Z,39.00
2019-02-02T07:15:58.099Z,37.03
2019-02-02T07:18:24.795Z,42.27
2019-02-02T07:20:51.503Z,37.95
2019-02-02T07:23:18.211Z,37.80
2019-02-02T07:25:44.922Z,40.28
2019-02-02T07:28:11.629Z,36.70
2019-02-02T07:30:38.330Z,38.42
2019-02-02T07:33:05.836Z,34.40
2019-02-02T07:35:32.532Z,37.17
2019-02-02T07:37:59.229Z,38.53
2019-02-02T07:40:26.020Z,40.98
2019-02-02T07:42:53.279Z,38.48
2019-02-02T07:45:25.643Z,40.30
2019-02-02T07:47:52.587Z,36.00
2019-02-02T07:50:19.751Z,40.35
2019-02-02T07:52:46.547Z,37.48
2019-02-02T07:55:14.591Z,35.52
2019-02-02T07:57:41.496Z,34.03
2019-02-02T08:00:12.783Z,38.20
2019-02-02T08:02:39.622Z,35.38
2019-02-02T08:05:06.616Z,35.33
2019-02-02T08:07:33.321Z,36.30
2019-02-02T08:10:00.031Z,34.40
2019-02-02T08:12:27.051Z,41.20
2019-02-02T08:14:54.307Z,36.35
2019-02-02T08:17:21.023Z,40.05
2019-02-02T08:19:47.739Z,34.53
2019-02-02T08:22:14.463Z,38.23
2019-02-02T08:24:41.168Z,39.38
2019-02-02T08:27:07.872Z,39.92
2019-02-02T08:29:34.700Z,37.98
2019-02-02T08:32:01.513Z,38.15
2019-02-02T08:34:28.587Z,38.60
2019-02-02T08:36:55.395Z,35.48
2019-02-02T08:39:28.860Z,39.45
2019-02-02T08:41:51.018Z,38.17
2019-02-02T08:44:17.795Z,39.60
2019-02-02T08:46:44.511Z,41.98
2019-02-02T08:49:11.327Z,40.60
2019-02-02T08:51:38.131Z,38.98
2019-02-02T08:54:04.836Z,38.40
2019-02-02T08:56:31.642Z,39.65
2019-02-02T08:58:58.343Z,38.02
2019-02-02T09:01:25.043Z,39.88
2019-02-02T09:03:51.796Z,37.05
2019-02-02T09:06:18.634Z,42.08
2019-02-02T09:08:45.326Z,37.15
2019-02-02T09:11:12.055Z,38.30
2019-02-02T09:13:38.763Z,39.90
2019-02-02T09:16:05.671Z,42.40
2019-02-02T09:18:32.379Z,39.58
2019-02-02T09:20:59.087Z,41.42
2019-02-02T09:23:25.799Z,40.50
2019-02-02T09:25:52.507Z,43.52
2019-02-02T09:28:19.221Z,38.98
2019-02-02T09:30:46.235Z,40.63
2019-02-02T09:33:13.279Z,44.98
2019-02-02T09:35:40.090Z,44.67
2019-02-02T09:38:06.812Z,42.48
2019-02-02T09:40:33.615Z,42.65
2019-02-02T09:43:00.419Z,40.90
2019-02-02T09:45:27.336Z,42.00
2019-02-02T09:47:54.146Z,46.30
2019-02-02T09:50:21.928Z,41.68
2019-02-02T09:52:48.843Z,41.05
2019-02-02T09:55:17.464Z,41.25
2019-02-02T09:57:44.281Z,41.63
2019-02-02T10:00:14.316Z,42.50
2019-02-02T10:02:41.111Z,43.23
2019-02-02T10:05:08.011Z,41.73
2019-02-02T10:07:34.731Z,43.60
2019-02-02T10:10:01.624Z,45.43
2019-02-02T10:12:28.320Z,43.42
2019-02-02T10:14:55.127Z,45.40
2019-02-02T10:17:21.827Z,46.18
2019-02-02T10:19:48.531Z,46.15
2019-02-02T10:22:15.231Z,48.20
2019-02-02T10:24:42.044Z,46.75
2019-02-02T10:27:09.135Z,44.50
2019-02-02T10:29:35.835Z,43.20
2019-02-02T10:32:02.535Z,44.18
2019-02-02T10:34:29.239Z,46.58
2019-02-02T10:36:56.042Z,50.48
2019-02-02T10:39:22.748Z,48.87
2019-02-02T10:41:49.439Z,47.98
2019-02-02T10:44:16.145Z,51.58
2019-02-02T10:46:42.861Z,47.10
2019-02-02T10:49:09.651Z,47.70
2019-02-02T10:51:36.560Z,50.38
2019-02-02T10:54:05.689Z,45.67
2019-02-02T10:56:33.087Z,50.58
2019-02-02T10:58:59.797Z,48.30
2019-02-02T11:01:26.639Z,44.40
2019-02-02T11:03:53.582Z,45.78
2019-02-02T11:06:20.276Z,43.60
2019-02-02T11:08:46.975Z,38.85
2019-02-02T11:11:13.779Z,41.42
2019-02-02T11:13:40.476Z,42.78
2019-02-02T11:16:08.491Z,42.53
2019-02-02T11:18:35.730Z,47.08
2019-02-02T11:21:03.121Z,40.80
2019-02-02T11:23:30.169Z,43.23
2019-02-02T11:25:57.056Z,41.37
2019-02-02T11:28:23.843Z,43.02
2019-02-02T11:30:52.250Z,43.20
2019-02-02T11:33:19.250Z,36.93
2019-02-02T11:35:46.255Z,43.75
2019-02-02T11:38:12.968Z,41.75
2019-02-02T11:40:39.664Z,42.67
2019-02-02T11:43:06.351Z,39.78
2019-02-02T11:45:33.263Z,40.50
2019-02-02T11:47:59.967Z,39.00
2019-02-02T11:50:26.777Z,38.35
2019-02-02T11:52:53.741Z,41.20
2019-02-02T11:55:20.741Z,38.73
2019-02-02T11:57:49.876Z,36.42
2019-02-02T12:00:18.927Z,37.85
2019-02-02T12:02:49.650Z,38.73
2019-02-02T12:05:14.435Z,39.27
2019-02-02T12:07:41.139Z,41.08
2019-02-02T12:10:09.591Z,40.20
2019-02-02T12:12:36.271Z,37.80
2019-02-02T12:15:05.458Z,38.78
2019-02-02T12:17:32.152Z,37.40
2019-02-02T12:19:58.860Z,33.92
2019-02-02T12:22:25.568Z,34.88
2019-02-02T12:24:52.300Z,35.63
2019-02-02T12:27:19.055Z,30.65
2019-02-02T12:29:45.763Z,35.83
2019-02-02T12:32:12.680Z,35.65
2019-02-02T12:34:39.429Z,37.60
2019-02-02T12:37:06.239Z,37.15
2019-02-02T12:39:33.039Z,35.28
2019-02-02T12:41:59.839Z,34.98
2019-02-02T12:44:26.547Z,36.83
2019-02-02T12:46:53.448Z,36.75
2019-02-02T12:49:20.159Z,37.25
2019-02-02T12:51:46.847Z,36.15
2019-02-02T12:54:13.551Z,38.15
2019-02-02T12:56:40.259Z,31.57
2019-02-02T12:59:07.064Z,34.08
2019-02-02T13:01:33.890Z,34.48
2019-02-02T13:04:03.442Z,39.03
2019-02-02T13:06:29.291Z,35.50
2019-02-02T13:08:55.991Z,38.05
2019-02-02T13:11:24.024Z,37.80
2019-02-02T13:13:50.989Z,37.60
2019-02-02T13:16:17.784Z,39.73
2019-02-02T13:18:44.487Z,37.30
2019-02-02T13:21:11.189Z,33.73
2019-02-02T13:23:37.900Z,35.10
2019-02-02T13:26:05.843Z,34.90
2019-02-02T13:28:33.328Z,35.43
2019-02-02T13:31:00.043Z,34.15
2019-02-02T13:33:27.067Z,31.40
2019-02-02T13:35:53.934Z,30.88
2019-02-02T13:38:20.732Z,34.98
2019-02-02T13:40:47.434Z,31.77
2019-02-02T13:43:14.131Z,30.10
2019-02-02T13:45:40.838Z,34.00
2019-02-02T13:48:07.537Z,31.75
2019-02-02T13:50:34.335Z,34.92
2019-02-02T13:53:01.371Z,31.87
2019-02-02T13:55:28.183Z,29.55
2019-02-02T13:57:54.988Z,34.20
2019-02-02T14:00:24.479Z,30.68
2019-02-02T14:03:02.196Z,31.90
2019-02-02T14:05:20.004Z,30.92
2019-02-02T14:07:46.928Z,32.85
2019-02-02T14:10:19.008Z,30.97
2019-02-02T14:12:45.811Z,34.50
2019-02-02T14:15:13.289Z,33.63
2019-02-02T14:17:40.166Z,34.70
2019-02-02T14:20:08.225Z,33.95
2019-02-02T14:22:35.147Z,36.77
2019-02-02T14:25:02.080Z,34.85
2019-02-02T14:27:28.783Z,34.30
2019-02-02T14:29:55.483Z,37.45
2019-02-02T14:32:22.428Z,34.78
2019-02-02T14:34:49.135Z,35.80
2019-02-02T14:37:15.834Z,35.90
2019-02-02T14:39:42.819Z,33.95
2019-02-02T14:42:09.520Z,38.90
2019-02-02T14:44:36.519Z,36.40
2019-02-02T14:47:03.331Z,37.28
2019-02-02T14:49:30.395Z,37.48
2019-02-02T14:51:57.119Z,35.25
2019-02-02T14:54:23.839Z,37.98
2019-02-02T14:56:50.648Z,38.05
2019-02-02T14:59:17.779Z,38.28
2019-02-02T15:01:44.495Z,39.27
2019-02-02T15:04:11.207Z,37.95
2019-02-02T15:06:37.903Z,33.18
2019-02-02T15:09:06.199Z,36.63
2019-02-02T15:11:33.007Z,36.33
2019-02-02T15:13:59.703Z,33.05
2019-02-02T15:16:26.403Z,35.52
2019-02-02T15:18:53.127Z,36.60
2019-02-02T15:21:20.180Z,34.38
2019-02-02T15:23:46.891Z,35.05
2019-02-02T15:26:13.593Z,34.60
2019-02-02T15:28:40.291Z,33.73
2019-02-02T15:31:07.200Z,34.95
2019-02-02T15:33:37.976Z,36.65
2019-02-02T15:36:03.272Z,36.58
2019-02-02T15:38:29.979Z,33.67
2019-02-02T15:40:59.080Z,36.15
2019-02-02T15:43:25.342Z,32.70
2019-02-02T15:45:52.495Z,35.13
2019-02-02T15:48:19.237Z,38.00
2019-02-02T15:50:45.936Z,34.65
2019-02-02T15:53:12.651Z,35.38
2019-02-02T15:55:39.411Z,36.20
2019-02-02T15:58:06.144Z,36.73
2019-02-02T16:00:35.151Z,33.18
2019-02-02T16:03:02.889Z,36.77
2019-02-02T16:05:30.056Z,35.48
2019-02-02T16:07:58.212Z,34.18
2019-02-02T16:10:26.120Z,31.30
2019-02-02T16:12:52.953Z,33.67
2019-02-02T16:15:19.948Z,31.45
2019-02-02T16:17:47.303Z,32.73
2019-02-02T16:20:16.787Z,30.60
2019-02-02T16:22:43.631Z,32.23
2019-02-02T16:25:10.619Z,32.67
2019-02-02T16:27:37.327Z,34.75
2019-02-02T16:30:08.828Z,33.50
2019-02-02T16:32:36.025Z,30.95
2019-02-02T16:35:04.046Z,31.87
2019-02-02T16:37:30.756Z,33.08
2019-02-02T16:39:57.467Z,31.97
2019-02-02T16:42:24.281Z,31.80
2019-02-02T16:44:50.975Z,33.88
2019-02-02T16:47:17.728Z,30.97
2019-02-02T16:49:44.651Z,30.80
2019-02-02T16:52:11.347Z,34.50
2019-02-02T16:54:38.311Z,32.48
2019-02-02T16:57:05.121Z,31.75
2019-02-02T16:59:31.811Z,32.25
2019-02-02T17:01:58.515Z,32.10
2019-02-02T17:04:25.223Z,29.35
2019-02-02T17:06:51.927Z,32.30
2019-02-02T17:09:18.865Z,29.75
2019-02-02T17:11:45.567Z,31.12
2019-02-02T17:14:12.752Z,34.18
2019-02-02T17:16:39.460Z,34.18
2019-02-02T17:19:06.155Z,32.35
2019-02-02T17:21:32.853Z,31.02
2019-02-02T17:23:59.563Z,31.12
2019-02-02T17:26:26.267Z,35.28
2019-02-02T17:28:52.975Z,32.50
2019-02-02T17:31:19.713Z,32.40
2019-02-02T17:33:46.412Z,32.25
2019-02-02T17:36:13.227Z,33.73
2019-02-02T17:38:39.923Z,34.35
2019-02-02T17:41:06.748Z,30.40
2019-02-02T17:43:33.545Z,33.95
2019-02-02T17:46:00.247Z,31.60
2019-02-02T17:48:26.951Z,32.42
2019-02-02T17:50:53.913Z,34.05
2019-02-02T17:53:22.805Z,33.08
2019-02-02T17:55:49.220Z,30.32
2019-02-02T17:58:15.931Z,28.95
2019-02-02T18:00:47.356Z,31.10
2019-02-02T18:03:14.061Z,33.18
2019-02-02T18:05:40.873Z,32.00
2019-02-02T18:08:07.676Z,32.17
2019-02-02T18:10:34.389Z,34.48
2019-02-02T18:13:01.187Z,32.98
2019-02-02T18:15:28.091Z,42.40
2019-02-02T18:17:54.782Z,48.02
2019-02-02T18:20:21.923Z,45.92
2019-02-02T18:22:48.622Z,43.13
2019-02-02T18:25:15.716Z,40.25
2019-02-02T18:27:42.421Z,39.05
2019-02-02T18:30:14.786Z,35.80
2019-02-02T18:32:41.587Z,37.33
2019-02-02T18:35:09.061Z,36.13
2019-02-02T18:37:35.763Z,38.92
2019-02-02T18:40:03.847Z,37.40
2019-02-02T18:42:30.647Z,37.05
2019-02-02T18:44:57.351Z,36.03
2019-02-02T18:47:24.058Z,38.20
2019-02-02T18:49:50.768Z,36.93
2019-02-02T18:52:17.687Z,34.63
2019-02-02T18:54:44.396Z,37.23
2019-02-02T18:57:11.210Z,37.35
2019-02-02T18:59:38.023Z,39.18
2019-02-02T19:02:05.065Z,38.40
2019-02-02T19:04:31.775Z,37.85
2019-02-02T19:06:58.507Z,37.73
2019-02-02T19:09:25.319Z,35.80
2019-02-02T19:11:52.028Z,36.85
2019-02-02T19:14:18.726Z,38.65
2019-02-02T19:16:45.447Z,37.20
2019-02-02T19:19:12.155Z,35.50
2019-02-02T19:21:39.059Z,36.63
2019-02-02T19:24:05.773Z,37.85
2019-02-02T19:26:32.500Z,39.67
2019-02-02T19:28:59.199Z,36.05
2019-02-02T19:31:26.012Z,40.45
2019-02-02T19:33:53.072Z,39.85
2019-02-02T19:36:19.767Z,38.65
2019-02-02T19:38:46.479Z,39.38
2019-02-02T19:41:13.187Z,37.98
2019-02-02T19:43:39.887Z,41.10
2019-02-02T19:46:06.584Z,40.00
2019-02-02T19:48:33.281Z,38.83
2019-02-02T19:51:00.331Z,36.45
2019-02-02T19:53:27.234Z,42.78
2019-02-02T19:55:53.947Z,40.60
2019-02-02T19:58:20.647Z,39.25
2019-02-02T20:00:47.447Z,37.50
2019-02-02T20:03:14.415Z,44.20
2019-02-02T20:05:41.111Z,43.00
2019-02-02T20:08:07.915Z,40.28
2019-02-02T20:10:34.815Z,41.75
2019-02-02T20:13:01.756Z,39.65
2019-02-02T20:15:28.563Z,38.78
2019-02-02T20:17:55.364Z,40.55
2019-02-02T20:20:23.621Z,39.80
2019-02-02T20:22:50.561Z,41.68
2019-02-02T20:25:17.608Z,39.85
2019-02-02T20:27:44.420Z,39.13
2019-02-02T20:32:44.187Z,42.17
2019-02-02T20:35:11.809Z,41.45
2019-02-02T20:37:38.599Z,45.98
2019-02-02T20:40:07.771Z,43.25
2019-02-02T20:42:34.476Z,44.18
2019-02-02T20:45:01.183Z,43.65
2019-02-02T20:47:27.900Z,44.98
2019-02-02T20:49:55.007Z,42.58
2019-02-02T20:52:22.383Z,44.42
2019-02-02T20:54:49.630Z,42.95
2019-02-02T20:57:16.331Z,45.43
2019-02-02T20:59:43.138Z,45.73
2019-02-02T21:02:09.935Z,41.73
2019-02-02T21:04:37.339Z,42.17
2019-02-02T21:07:04.039Z,45.08
2019-02-02T21:09:30.742Z,41.50
2019-02-02T21:11:57.438Z,42.90
2019-02-02T21:14:24.159Z,44.38
2019-02-02T21:16:50.975Z,44.30
2019-02-02T21:19:17.672Z,43.68
2019-02-02T21:21:44.363Z,44.37
2019-02-02T21:24:11.063Z,43.73
2019-02-02T21:26:37.767Z,44.42
2019-02-02T21:29:04.563Z,43.48
2019-02-02T21:31:31.279Z,43.68
2019-02-02T21:33:57.995Z,43.08
2019-02-02T21:36:25.002Z,42.13
2019-02-02T21:38:51.707Z,43.48
2019-02-02T21:41:18.688Z,38.13
2019-02-02T21:43:45.503Z,40.73
2019-02-02T21:46:12.508Z,43.92
2019-02-02T21:48:39.219Z,40.67
2019-02-02T21:51:05.924Z,41.15
2019-02-02T21:53:33.006Z,37.98
2019-02-02T21:55:59.735Z,38.37
2019-02-02T21:58:26.435Z,38.75
2019-02-02T22:00:53.167Z,38.75
2019-02-02T22:03:20.270Z,36.33
2019-02-02T22:05:46.983Z,38.05
2019-02-02T22:08:13.699Z,38.38
2019-02-02T22:10:40.807Z,36.80
2019-02-02T22:13:07.731Z,38.28
2019-02-02T22:15:34.527Z,38.35
2019-02-02T22:18:01.332Z,35.45
2019-02-02T22:20:28.332Z,36.58
2019-02-02T22:22:55.237Z,36.73
2019-02-02T22:25:24.420Z,35.33
2019-02-02T22:27:51.322Z,36.45
2019-02-02T22:30:20.086Z,37.85
2019-02-02T22:32:46.803Z,37.13
2019-02-02T22:35:13.815Z,37.38
2019-02-02T22:37:40.799Z,35.23
2019-02-02T22:40:09.839Z,34.98
2019-02-02T22:42:36.647Z,35.52
2019-02-02T22:45:04.835Z,35.65
2019-02-02T22:47:31.543Z,37.73
2019-02-02T22:49:58.239Z,38.33
2019-02-02T22:52:25.324Z,38.65
2019-02-02T22:54:52.032Z,37.42
2019-02-02T22:57:19.438Z,35.38
2019-02-02T22:59:47.854Z,37.40
2019-02-02T23:02:17.959Z,37.50
2019-02-02T23:05:04.979Z,36.95
2019-02-02T23:07:44.920Z,39.20
2019-02-02T23:10:28.563Z,38.80
2019-02-02T23:13:19.685Z,40.85
2019-02-02T23:16:39.072Z,42.95
2019-02-02T23:19:05.976Z,45.63
2019-02-02T23:21:32.679Z,43.70
2019-02-02T23:23:59.591Z,48.45
2019-02-02T23:26:26.504Z,45.90
2019-02-02T23:28:53.211Z,46.10
2019-02-02T23:31:20.723Z,49.18
2019-02-02T23:33:47.647Z,48.20
2019-02-02T23:36:14.555Z,53.13
2019-02-02T23:38:41.256Z,51.50
2019-02-02T23:41:07.968Z,50.65
2019-02-02T23:43:34.663Z,51.20
2019-02-02T23:46:01.566Z,48.80
2019-02-02T23:48:28.359Z,47.95
2019-02-02T23:50:55.075Z,49.03
2019-02-02T23:53:21.963Z,49.23
2019-02-02T23:55:48.663Z,50.90
2019-02-02T23:58:15.746Z,48.50
